Aérodrome :
LOGIN :

S'inscrire | Disclaimer

   EN    FR    IT 

 










Légende :    VFR   VFR Marginal   IFR   IFR Intensif   IFR Très Intensif
Visi : 
Plafond : 
>= 8 km
>= 3000ft
5 à 8 km
1000 à 3000 ft
1500m à 5 km
500 à 1000 ft
800 à 1500m
200 à 500 ft
< 800m
< 200 ft
Symboles :   Orages  Brouillard  Fortes neiges  Fortes précipitations  Vent > 20 kt
SIGMETs :   Divers  Orages  Givrage  Turbulence  Onde Orograph.  Cendres Volcan.







- Altitude de l'aérodrome : 915 ft
- Code IATA : LUG


LSZA - Lugano

DERNIER METAR :
  • 260320Z AUTO VRB01KT 7000 -RA SCT070 BKN090 13/13 Q1015 REDZ

METARs EXPIRÉS :
  • 260250Z AUTO 34002KT 9999 -DZ SCT070 BKN090 13/13 Q1015
  • 260220Z AUTO 03002KT 9999 -RA BKN070 BKN090 13/13 Q1015
  • 260150Z AUTO 35003KT 9999 BKN007 SCT090 14/14 Q1015
  • 260120Z AUTO 36001KT 9999 BKN007 BKN090 14/14 Q1015
  • 260050Z AUTO 03001KT 9999 OVC007 14/14 Q1015

TAF COR TAF LSZA
Valide du 26 à 03h jusqu'au 26 à 12h UTC


260257Z 2603/2612 VRB03KT 9999 SCT070 BKN090
PROB40
TEMPO 2603/2609 SHRA
ATIS : +41 22 417 40 88
Pas de NOTAMs connus pour ce terrain.
3 SIGMETs publiés pour la FIR Switzerland (LSAS) :
 
Turbulence forte
LSAS SIGMET 3 VALID 260342/260500 LSZH
LSAS SWITZERLAND FIR SEV TURB FCST W OF LINE N4604 E00638 - N4738 E00743 FL200/300 STNR NC=
Turbulence forte
LSAS SIGMET 2 VALID 260330/260500 LSZH
LSAS SWITZERLAND FIR/UIR SEV TURB FCST WI N4753 E00851 - N4744 E00950 - N4656 E00850 - N4631 E00748 - N4630 E00655 - N4737 E00742 - N4753 E00851 FL240/320 STNR NC=
Turbulence forte
LSAS SIGMET 1 VALID 260100/260330 LSZH
LSAS SWITZERLAND FIR/UIR SEV TURB FCST WI N4753 E00851 - N4728 E00848 - N4657 E00750 - N4553 E00607 - N4621 E00543 - N4743 E00714 - N4753 E00851 FL220/320 STNR NC=



MET'MAP, la Météo Aéronautique d'un coup d'oeil ! - Copyright ORBIFLY Décembre 2007 - Disclaimer

ORBIFLY MET'MAP TEAM :

Programmation & Développement : Alexandra Zaïnal
Conception & Développement : Baudouin d'Aumeries
Co-Programmation & Développement : Marc-Olivier Méhu
Soutien technique & logistique : Manuel Goepfert

Contact : metmap@orbifly.com




SOURCES & CREDITS :

   NOAA